Time;durP1;ratioP1;P1;durP2;ratioP2;P2;SDS_P1;SDS_P2;PMS_P1;PMS_P2;Temp;Humidity;BMP_temperature;BMP_pressure;BME280_temperature;BME280_humidity;BME280_pressure;Samples;Min_cycle;Max_cycle;Signal;HPM_P1;HPM_P2
2021/07/29 00:01:31;;;;;;;3.00;2.73;;;17.20;99.90;;;;;;5034243;28;20507;-60
2021/07/29 00:03:58;;;;;;;3.57;2.63;;;17.30;99.90;;;;;;5032697;28;20535;-61
2021/07/29 00:06:25;;;;;;;3.10;2.80;;;17.20;99.90;;;;;;5042044;28;20853;-60
2021/07/29 00:08:52;;;;;;;3.53;2.93;;;17.30;99.90;;;;;;5053030;28;20836;-61
2021/07/29 00:11:19;;;;;;;3.90;3.10;;;17.40;99.90;;;;;;5052999;28;20490;-60
2021/07/29 00:13:46;;;;;;;3.30;3.00;;;17.30;99.90;;;;;;5050286;28;20468;-60
2021/07/29 00:16:15;;;;;;;4.97;3.30;;;17.20;99.90;;;;;;5052682;28;20471;-60
2021/07/29 00:21:26;;;;;;;3.83;3.20;;;17.20;99.90;;;;;;5051687;28;20485;-60
2021/07/29 00:23:53;;;;;;;4.23;2.57;;;17.20;99.90;;;;;;5042369;28;20472;-60
2021/07/29 00:26:20;;;;;;;3.20;2.90;;;17.20;99.90;;;;;;5049451;28;20496;-62
2021/07/29 00:28:47;;;;;;;2.63;2.40;;;17.20;99.90;;;;;;5051342;28;20476;-60
2021/07/29 00:31:15;;;;;;;4.30;3.13;;;17.10;99.90;;;;;;5053133;28;20505;-60
2021/07/29 00:33:43;;;;;;;4.40;3.10;;;17.20;99.90;;;;;;5042222;28;20480;-62
2021/07/29 00:36:19;;;;;;;2.80;2.50;;;17.10;99.90;;;;;;5033463;28;20950;-60
2021/07/29 00:38:46;;;;;;;3.07;2.40;;;17.10;99.90;;;;;;5050977;28;20455;-60
2021/07/29 00:41:14;;;;;;;4.20;2.80;;;17.10;99.90;;;;;;5044321;28;20885;-60
2021/07/29 00:43:40;;;;;;;3.63;2.37;;;17.00;99.90;;;;;;5032111;28;20560;-61
2021/07/29 00:46:08;;;;;;;2.70;2.33;;;17.00;99.90;;;;;;5032375;28;20448;-60
2021/07/29 00:48:36;;;;;;;2.43;2.10;;;17.00;99.90;;;;;;5052321;28;20919;-61
2021/07/29 00:51:03;;;;;;;2.70;2.50;;;17.10;99.90;;;;;;5046808;28;20457;-60
2021/07/29 00:53:30;;;;;;;2.70;2.50;;;17.00;99.90;;;;;;5038019;28;20557;-60
2021/07/29 00:55:58;;;;;;;3.00;2.50;;;17.00;99.90;;;;;;5044658;28;20461;-60
2021/07/29 00:58:26;;;;;;;2.50;2.00;;;17.00;99.90;;;;;;5035486;28;20453;-61
2021/07/29 01:00:53;;;;;;;3.67;2.70;;;17.10;99.90;;;;;;5035839;28;20525;-60
2021/07/29 01:03:20;;;;;;;4.87;2.30;;;17.00;99.90;;;;;;5031822;28;20526;-60
2021/07/29 01:05:48;;;;;;;3.60;2.60;;;17.00;99.90;;;;;;5032156;28;20506;-60
2021/07/29 01:08:15;;;;;;;6.80;2.80;;;16.90;99.90;;;;;;5048514;28;20546;-60
2021/07/29 01:10:42;;;;;;;4.60;2.73;;;16.80;99.90;;;;;;5050310;28;20877;-60
2021/07/29 01:13:09;;;;;;;3.67;3.13;;;16.90;99.90;;;;;;5049597;28;20564;-60
2021/07/29 01:15:36;;;;;;;4.07;3.03;;;16.80;99.90;;;;;;5049746;28;20497;-60
2021/07/29 01:18:03;;;;;;;3.37;3.07;;;16.80;99.90;;;;;;5051064;28;20552;-61
2021/07/29 01:20:32;;;;;;;3.93;2.43;;;16.80;99.90;;;;;;5051233;28;20451;-60
2021/07/29 01:22:59;;;;;;;3.10;2.73;;;16.80;99.90;;;;;;5051385;28;20484;-60
2021/07/29 01:25:26;;;;;;;2.97;2.67;;;16.80;99.90;;;;;;5042401;28;21028;-60
2021/07/29 01:27:53;;;;;;;3.20;2.73;;;16.80;99.90;;;;;;5048201;28;20803;-60
2021/07/29 01:30:20;;;;;;;3.40;2.33;;;16.70;99.90;;;;;;5037741;28;20480;-60
2021/07/29 01:32:47;;;;;;;2.80;2.50;;;16.90;99.90;;;;;;5032614;28;20476;-60
2021/07/29 01:35:14;;;;;;;4.90;2.57;;;16.80;99.90;;;;;;5031632;28;20460;-60
2021/07/29 01:37:42;;;;;;;2.63;2.43;;;16.80;99.90;;;;;;5043066;28;20451;-60
2021/07/29 01:40:11;;;;;;;5.37;2.80;;;16.70;99.90;;;;;;5051351;28;20436;-60
2021/07/29 01:42:38;;;;;;;7.07;2.73;;;16.60;99.90;;;;;;5051232;28;21023;-61
2021/07/29 01:45:06;;;;;;;3.07;2.77;;;16.60;99.90;;;;;;5047379;28;20453;-60
2021/07/29 01:47:33;;;;;;;2.63;2.43;;;16.60;99.90;;;;;;5045434;28;20501;-60
2021/07/29 01:50:00;;;;;;;8.90;3.33;;;16.60;99.90;;;;;;5051653;28;20480;-60
2021/07/29 01:52:27;;;;;;;3.73;3.17;;;16.50;99.90;;;;;;5054471;28;20474;-60
2021/07/29 01:54:55;;;;;;;4.90;3.60;;;16.60;99.90;;;;;;5054896;28;20509;-60
2021/07/29 01:57:23;;;;;;;4.70;3.30;;;16.50;99.90;;;;;;5055505;28;20513;-60
2021/07/29 01:59:50;;;;;;;3.97;3.13;;;16.50;99.90;;;;;;5054024;28;20505;-61
2021/07/29 02:02:17;;;;;;;4.03;2.80;;;16.50;99.90;;;;;;5035840;28;21027;-60
2021/07/29 02:04:44;;;;;;;3.80;2.73;;;16.40;99.90;;;;;;5036801;28;20954;-61
2021/07/29 02:07:11;;;;;;;5.17;3.30;;;16.40;99.90;;;;;;5054903;28;20520;-60
2021/07/29 02:09:38;;;;;;;4.03;3.00;;;16.40;99.90;;;;;;5055489;28;20977;-60
2021/07/29 02:12:07;;;;;;;9.83;3.30;;;16.40;99.90;;;;;;5055356;28;20501;-60
2021/07/29 02:14:34;;;;;;;4.63;2.83;;;16.40;99.90;;;;;;5047668;28;21277;-60
2021/07/29 02:17:01;;;;;;;3.70;2.93;;;16.40;99.90;;;;;;5055012;28;20957;-61
2021/07/29 02:19:29;;;;;;;3.83;3.23;;;16.40;99.90;;;;;;5052736;28;20454;-60
2021/07/29 02:21:56;;;;;;;5.00;3.67;;;16.40;99.90;;;;;;5035552;28;20861;-60
2021/07/29 02:24:23;;;;;;;5.33;3.77;;;16.50;99.90;;;;;;5044636;28;20850;-60
2021/07/29 02:26:50;;;;;;;3.53;3.23;;;16.50;99.90;;;;;;5049011;28;20864;-60
2021/07/29 02:29:19;;;;;;;4.73;3.20;;;16.40;99.90;;;;;;5034947;28;20480;-60
2021/07/29 02:31:46;;;;;;;3.87;2.93;;;16.40;99.90;;;;;;5034941;28;20452;-60
2021/07/29 02:34:13;;;;;;;2.80;2.60;;;16.20;99.90;;;;;;5036440;28;20475;-60
2021/07/29 02:36:40;;;;;;;3.90;2.90;;;16.20;99.90;;;;;;5040988;28;20905;-60
2021/07/29 02:39:07;;;;;;;3.07;2.77;;;16.10;99.90;;;;;;5042460;28;20448;-60
2021/07/29 02:41:35;;;;;;;3.87;2.83;;;16.20;99.90;;;;;;5036205;28;20452;-60
2021/07/29 02:44:02;;;;;;;4.50;3.20;;;16.20;99.90;;;;;;5037392;28;20908;-61
2021/07/29 02:46:31;;;;;;;4.37;2.93;;;16.20;99.90;;;;;;5054583;28;20505;-60
2021/07/29 02:48:58;;;;;;;5.00;3.60;;;16.10;99.90;;;;;;5053178;28;20484;-60
2021/07/29 02:51:25;;;;;;;5.60;4.10;;;16.00;99.90;;;;;;5052994;28;20448;-60
2021/07/29 02:53:52;;;;;;;6.53;4.80;;;15.90;99.90;;;;;;5047386;28;20472;-60
2021/07/29 02:56:19;;;;;;;7.10;4.87;;;15.90;99.90;;;;;;5052480;28;20497;-59
2021/07/29 02:58:47;;;;;;;6.07;4.40;;;15.90;99.90;;;;;;5052642;28;20452;-60
2021/07/29 03:01:14;;;;;;;6.17;4.77;;;15.90;99.90;;;;;;5039059;28;20479;-61
2021/07/29 03:03:43;;;;;;;5.77;3.70;;;15.90;99.90;;;;;;5034111;28;20905;-60
2021/07/29 03:06:10;;;;;;;6.60;4.23;;;15.90;99.90;;;;;;5051478;28;20479;-60
2021/07/29 03:08:37;;;;;;;6.73;3.40;;;15.80;99.90;;;;;;5054003;28;20466;-60
2021/07/29 03:11:05;;;;;;;4.27;3.00;;;15.80;99.90;;;;;;5054249;28;20804;-62
2021/07/29 03:13:32;;;;;;;4.40;3.70;;;15.80;99.90;;;;;;5053448;28;20534;-59
2021/07/29 03:15:59;;;;;;;4.30;3.70;;;15.80;99.90;;;;;;5053592;28;21031;-60
2021/07/29 03:18:26;;;;;;;8.70;3.40;;;15.90;99.90;;;;;;5053045;28;21032;-60
2021/07/29 03:20:55;;;;;;;5.40;3.77;;;15.90;99.90;;;;;;5052148;28;20468;-62
2021/07/29 03:23:22;;;;;;;6.17;4.00;;;15.80;99.90;;;;;;5033871;28;20541;-60
2021/07/29 03:25:50;;;;;;;5.80;3.87;;;15.80;99.90;;;;;;5047947;28;20447;-60
2021/07/29 03:28:17;;;;;;;5.67;3.93;;;15.80;99.90;;;;;;5052116;28;20964;-61
2021/07/29 03:30:44;;;;;;;6.00;3.70;;;15.80;99.90;;;;;;5039204;28;20484;-59
2021/07/29 03:33:11;;;;;;;6.57;4.50;;;15.80;99.90;;;;;;5047907;28;20476;-60
2021/07/29 03:35:39;;;;;;;3.90;3.00;;;15.80;99.90;;;;;;5043154;28;20456;-60
2021/07/29 03:38:08;;;;;;;4.40;3.50;;;15.80;99.90;;;;;;5049243;28;20509;-62
2021/07/29 03:40:36;;;;;;;4.20;3.50;;;15.80;99.90;;;;;;5033706;28;21047;-59
2021/07/29 03:43:04;;;;;;;4.87;3.50;;;15.80;99.90;;;;;;5034326;28;21177;-60
2021/07/29 03:45:32;;;;;;;4.90;3.30;;;15.70;99.90;;;;;;5043931;28;20448;-59
2021/07/29 03:48:00;;;;;;;6.40;3.60;;;15.70;99.90;;;;;;5047881;28;20453;-60
2021/07/29 03:50:28;;;;;;;4.50;3.60;;;15.70;99.90;;;;;;5044004;28;20893;-60
2021/07/29 03:52:55;;;;;;;4.30;3.90;;;15.80;99.90;;;;;;5053160;28;20506;-60
2021/07/29 03:55:24;;;;;;;9.77;7.03;;;15.80;99.90;;;;;;5052691;28;20448;-60
2021/07/29 03:57:51;;;;;;;11.40;7.60;;;15.80;99.90;;;;;;5042996;28;20461;-59
2021/07/29 04:00:18;;;;;;;8.03;5.23;;;15.70;99.90;;;;;;5034854;28;20493;-60
2021/07/29 04:02:45;;;;;;;14.20;5.20;;;15.70;99.90;;;;;;5033154;28;20485;-60
2021/07/29 04:05:12;;;;;;;6.60;4.37;;;15.70;99.90;;;;;;5042343;28;20870;-59
2021/07/29 04:07:40;;;;;;;8.13;3.27;;;15.60;99.90;;;;;;5066509;28;20455;-59
2021/07/29 04:10:07;;;;;;;6.47;3.70;;;15.60;99.90;;;;;;5032813;28;20530;-60
2021/07/29 04:12:36;;;;;;;4.10;3.80;;;15.60;99.90;;;;;;5035465;28;20522;-60
2021/07/29 04:15:03;;;;;;;4.37;3.97;;;15.60;99.90;;;;;;5051445;28;20949;-60
2021/07/29 04:17:30;;;;;;;4.70;3.77;;;15.60;99.90;;;;;;5050969;28;20502;-61
2021/07/29 04:19:59;;;;;;;4.30;3.90;;;15.60;99.90;;;;;;5046257;28;20453;-60
2021/07/29 04:22:26;;;;;;;3.53;3.03;;;15.70;99.90;;;;;;5054879;28;20450;-59
2021/07/29 04:24:55;;;;;;;4.43;3.80;;;15.80;99.90;;;;;;5052460;28;20452;-60
2021/07/29 04:27:22;;;;;;;6.10;3.40;;;15.90;99.90;;;;;;5052757;28;20535;-59
2021/07/29 04:29:50;;;;;;;3.77;2.90;;;15.90;99.90;;;;;;5049859;28;20903;-60
2021/07/29 04:32:20;;;;;;;3.87;3.07;;;15.80;99.90;;;;;;5050812;28;20448;-60
2021/07/29 04:34:47;;;;;;;3.80;3.40;;;15.90;99.90;;;;;;5052158;28;20470;-60
2021/07/29 04:37:15;;;;;;;3.53;3.00;;;16.00;99.90;;;;;;5052387;28;21619;-60
2021/07/29 04:39:44;;;;;;;4.07;3.23;;;16.00;99.90;;;;;;5052686;28;21017;-60
2021/07/29 04:42:13;;;;;;;3.53;2.60;;;16.00;99.90;;;;;;5051619;28;20447;-60
2021/07/29 04:44:40;;;;;;;4.00;3.20;;;16.10;99.90;;;;;;5048398;28;20530;-59
2021/07/29 04:47:14;;;;;;;3.67;2.90;;;16.20;99.90;;;;;;5048051;28;20455;-61
2021/07/29 04:49:42;;;;;;;8.03;2.90;;;16.30;99.90;;;;;;5032445;28;20483;-60
2021/07/29 04:52:09;;;;;;;3.63;2.63;;;16.40;99.90;;;;;;5051906;28;21128;-59
2021/07/29 04:54:36;;;;;;;3.73;3.30;;;16.60;99.90;;;;;;5051262;28;20475;-60
2021/07/29 04:57:03;;;;;;;4.20;3.00;;;16.80;99.90;;;;;;5050207;28;20452;-60
2021/07/29 04:59:30;;;;;;;6.47;3.07;;;16.90;99.90;;;;;;5051457;28;20802;-59
2021/07/29 05:01:57;;;;;;;3.70;2.70;;;17.00;99.90;;;;;;5051400;28;20502;-60
2021/07/29 05:04:25;;;;;;;4.33;3.00;;;17.00;99.90;;;;;;5051647;28;20471;-60
2021/07/29 05:06:52;;;;;;;6.80;3.20;;;17.40;99.90;;;;;;5048677;28;20460;-60
2021/07/29 05:09:19;;;;;;;2.97;2.67;;;17.70;99.90;;;;;;5051554;28;20440;-60
2021/07/29 05:11:46;;;;;;;4.67;3.10;;;18.10;99.90;;;;;;5052200;28;20455;-60
2021/07/29 05:14:13;;;;;;;3.50;3.07;;;18.70;99.90;;;;;;5054249;28;21016;-60
2021/07/29 05:16:40;;;;;;;3.50;2.33;;;19.20;99.90;;;;;;5046135;28;20463;-60
2021/07/29 05:19:07;;;;;;;3.80;2.60;;;19.10;99.90;;;;;;5052466;28;20450;-59
2021/07/29 05:21:35;;;;;;;2.80;2.50;;;18.70;99.90;;;;;;5062395;28;20440;-59
2021/07/29 05:24:05;;;;;;;7.87;2.57;;;18.40;99.90;;;;;;5050711;28;20529;-59
2021/07/29 05:26:32;;;;;;;2.70;2.50;;;18.30;99.90;;;;;;5054764;28;20539;-60
2021/07/29 05:28:59;;;;;;;2.50;2.30;;;18.10;99.90;;;;;;5045092;28;20448;-59
2021/07/29 05:31:26;;;;;;;2.90;2.60;;;18.20;99.90;;;;;;5042096;28;20480;-60
2021/07/29 05:33:53;;;;;;;2.83;2.40;;;18.20;99.90;;;;;;5045339;28;20472;-60
2021/07/29 05:36:20;;;;;;;4.00;2.73;;;18.20;99.90;;;;;;5056188;28;20446;-60
2021/07/29 05:38:48;;;;;;;4.40;2.60;;;18.10;99.90;;;;;;5061116;28;20453;-60
2021/07/29 05:41:15;;;;;;;2.40;2.20;;;18.10;99.90;;;;;;5031530;28;20452;-60
2021/07/29 05:43:42;;;;;;;2.70;2.50;;;18.10;99.90;;;;;;5031191;28;20469;-60
2021/07/29 05:46:09;;;;;;;2.77;2.20;;;17.90;99.90;;;;;;5052462;28;20447;-61
2021/07/29 05:48:36;;;;;;;15.27;3.37;;;17.80;99.90;;;;;;5071533;28;20921;-61
2021/07/29 05:51:04;;;;;;;2.63;2.20;;;17.80;99.90;;;;;;5057147;28;20525;-59
2021/07/29 05:53:31;;;;;;;2.40;2.17;;;17.80;99.90;;;;;;5051144;28;20463;-61
2021/07/29 05:56:00;;;;;;;3.10;2.23;;;17.90;99.90;;;;;;5060003;28;20454;-60
2021/07/29 05:58:27;;;;;;;2.03;1.93;;;18.20;99.90;;;;;;5070895;28;20458;-60
2021/07/29 06:00:54;;;;;;;4.43;1.90;;;18.60;99.90;;;;;;5071364;28;20933;-61
2021/07/29 06:03:22;;;;;;;2.40;1.87;;;19.00;99.90;;;;;;5065912;28;20479;-59
2021/07/29 06:05:49;;;;;;;3.77;2.53;;;19.50;99.90;;;;;;5051456;28;20452;-60
2021/07/29 06:08:16;;;;;;;3.90;1.90;;;20.10;99.90;;;;;;5051519;28;20485;-60
2021/07/29 06:10:43;;;;;;;3.13;2.30;;;20.10;99.90;;;;;;5051114;28;20533;-60
2021/07/29 06:13:11;;;;;;;6.90;2.37;;;20.10;99.90;;;;;;5052864;28;20467;-59
2021/07/29 06:15:38;;;;;;;2.80;2.30;;;19.90;99.90;;;;;;5071274;28;20508;-59
2021/07/29 06:18:09;;;;;;;2.27;2.07;;;19.70;99.90;;;;;;5071140;28;20932;-60
2021/07/29 06:20:36;;;;;;;1.93;1.83;;;19.70;99.90;;;;;;5071214;28;20450;-60
2021/07/29 06:23:03;;;;;;;3.63;2.13;;;19.40;99.90;;;;;;5069921;28;20463;-60
2021/07/29 06:25:30;;;;;;;2.17;2.07;;;19.20;99.90;;;;;;5051080;28;20456;-61
2021/07/29 06:27:57;;;;;;;2.53;2.30;;;19.20;99.90;;;;;;5051248;28;20451;-61
2021/07/29 06:30:25;;;;;;;3.37;2.00;;;19.00;99.90;;;;;;5051019;28;20483;-59
2021/07/29 06:32:52;;;;;;;2.50;2.20;;;18.80;99.90;;;;;;5054260;28;20479;-59
2021/07/29 06:35:19;;;;;;;3.20;2.70;;;18.90;99.90;;;;;;5074308;28;20461;-60
2021/07/29 06:37:46;;;;;;;3.40;2.23;;;19.20;99.90;;;;;;5074924;28;20455;-59
2021/07/29 06:40:14;;;;;;;4.53;2.50;;;19.40;99.90;;;;;;5074786;28;20846;-60
2021/07/29 06:42:41;;;;;;;2.20;2.00;;;19.40;99.90;;;;;;5052827;28;20486;-59
2021/07/29 06:45:09;;;;;;;2.07;1.97;;;19.90;99.90;;;;;;5053593;28;20455;-60
2021/07/29 06:47:37;;;;;;;3.60;2.10;;;20.80;99.90;;;;;;5054395;28;20447;-61
2021/07/29 06:50:06;;;;;;;3.07;2.43;;;21.50;99.90;;;;;;5053823;28;20475;-61
2021/07/29 06:52:33;;;;;;;2.73;2.47;;;22.20;99.90;;;;;;5054290;28;20452;-60
2021/07/29 06:54:59;;;;;;;3.50;2.30;;;23.00;99.90;;;;;;5054492;28;20520;-61
2021/07/29 06:57:26;;;;;;;3.40;2.30;;;23.20;99.90;;;;;;5054344;28;20455;-61
2021/07/29 06:59:53;;;;;;;2.40;2.20;;;23.00;99.90;;;;;;5054308;28;20493;-59
2021/07/29 07:02:20;;;;;;;3.00;2.50;;;22.60;99.90;;;;;;5053680;28;20451;-60
2021/07/29 07:04:49;;;;;;;3.07;2.10;;;22.10;99.90;;;;;;5054274;28;20510;-60
2021/07/29 07:07:16;;;;;;;2.33;2.13;;;21.60;99.90;;;;;;5053843;28;20521;-59
2021/07/29 07:09:44;;;;;;;3.20;1.90;;;21.60;99.90;;;;;;5054087;28;20509;-60
2021/07/29 07:12:12;;;;;;;4.73;2.03;;;22.20;99.90;;;;;;5053797;28;20483;-60
2021/07/29 07:14:39;;;;;;;2.77;2.40;;;23.20;99.90;;;;;;5054175;28;20472;-60
2021/07/29 07:17:07;;;;;;;2.20;2.00;;;24.30;99.90;;;;;;5053845;28;20452;-59
2021/07/29 07:19:35;;;;;;;8.30;2.73;;;25.10;99.90;;;;;;5053975;28;20458;-60
2021/07/29 07:22:09;;;;;;;3.47;2.20;;;25.50;99.90;;;;;;5053702;28;20447;-60
2021/07/29 07:24:36;;;;;;;2.40;2.10;;;25.90;99.90;;;;;;5053900;28;20533;-59
2021/07/29 07:27:05;;;;;;;3.03;2.30;;;25.50;99.90;;;;;;5053821;28;20459;-60
2021/07/29 07:29:33;;;;;;;4.00;2.20;;;24.90;99.90;;;;;;5053636;28;20462;-60
2021/07/29 07:32:01;;;;;;;2.13;1.93;;;24.40;99.90;;;;;;5052919;28;20537;-60
2021/07/29 07:34:28;;;;;;;2.47;2.27;;;23.70;99.90;;;;;;5053390;28;20550;-60
2021/07/29 07:36:56;;;;;;;2.70;2.50;;;23.20;99.90;;;;;;5053547;28;20456;-60
2021/07/29 07:39:25;;;;;;;2.43;2.23;;;22.70;99.90;;;;;;5053510;28;20932;-61
2021/07/29 07:41:52;;;;;;;2.47;2.27;;;22.40;99.90;;;;;;5053615;28;20443;-60
2021/07/29 07:44:19;;;;;;;2.10;2.00;;;22.10;99.90;;;;;;5051848;28;20517;-61
2021/07/29 07:46:46;;;;;;;3.30;2.60;;;22.20;99.90;;;;;;5053288;28;20459;-61
2021/07/29 07:49:13;;;;;;;2.57;2.20;;;22.20;99.90;;;;;;5053504;28;20455;-60
2021/07/29 07:51:42;;;;;;;3.93;2.30;;;22.10;99.90;;;;;;5053193;28;21000;-60
2021/07/29 07:54:09;;;;;;;3.07;2.40;;;22.30;99.90;;;;;;5053160;28;20480;-60
2021/07/29 07:56:42;;;;;;;2.20;2.00;;;22.40;99.90;;;;;;5053347;28;20447;-59
2021/07/29 07:59:10;;;;;;;3.33;2.40;;;22.40;99.90;;;;;;5051090;28;20459;-61
2021/07/29 08:01:39;;;;;;;5.83;2.43;;;22.40;99.90;;;;;;5052915;28;20534;-60
2021/07/29 08:04:06;;;;;;;4.05;2.40;;;22.30;99.90;;;;;;5071975;22;20483;-56
2021/07/29 08:06:33;;;;;;;2.90;2.10;;;22.30;99.90;;;;;;5047718;28;20285;-53
2021/07/29 08:09:02;;;;;;;2.60;2.30;;;22.30;99.90;;;;;;5052222;28;20440;-53
2021/07/29 08:11:29;;;;;;;2.53;2.33;;;22.70;99.90;;;;;;5052473;28;20532;-53
2021/07/29 08:13:58;;;;;;;2.77;2.47;;;23.00;99.90;;;;;;5052464;28;20463;-54
2021/07/29 08:16:25;;;;;;;3.10;2.20;;;23.20;99.90;;;;;;5052639;28;20884;-54
2021/07/29 08:18:53;;;;;;;2.80;2.47;;;23.50;99.90;;;;;;5050392;28;20509;-54
2021/07/29 08:21:21;;;;;;;2.40;2.20;;;23.70;99.90;;;;;;5033137;28;20453;-53
2021/07/29 08:23:48;;;;;;;2.80;2.30;;;23.90;99.90;;;;;;5036352;28;20521;-54
2021/07/29 08:26:15;;;;;;;3.00;2.43;;;23.90;99.90;;;;;;5052483;28;21017;-54
2021/07/29 08:28:42;;;;;;;2.53;2.33;;;24.50;99.90;;;;;;5052329;28;20513;-54
2021/07/29 08:31:12;;;;;;;2.80;2.20;;;25.30;99.90;;;;;;5051728;28;20471;-54
2021/07/29 08:33:39;;;;;;;3.27;2.37;;;25.80;99.90;;;;;;5051893;28;20976;-53
2021/07/29 08:36:11;;;;;;;2.97;2.43;;;25.90;99.90;;;;;;5051702;28;20718;-54
2021/07/29 08:38:38;;;;;;;2.80;2.30;;;26.00;99.90;;;;;;5052446;28;20873;-54
2021/07/29 08:41:05;;;;;;;5.47;2.50;;;26.80;99.90;;;;;;5052444;28;20884;-54
2021/07/29 08:43:34;;;;;;;2.03;1.93;;;27.60;99.90;;;;;;5051887;28;20468;-54
2021/07/29 08:46:03;;;;;;;4.43;2.30;;;28.30;99.90;;;;;;5051345;28;20456;-54
2021/07/29 08:48:33;;;;;;;2.67;2.27;;;27.50;99.90;;;;;;5052003;28;20517;-54
2021/07/29 08:51:00;;;;;;;2.47;2.30;;;28.30;99.90;;;;;;5051776;28;21008;-54
2021/07/29 08:53:27;;;;;;;2.53;2.33;;;28.80;99.90;;;;;;5051058;28;20479;-54
2021/07/29 08:55:55;;;;;;;2.93;2.73;;;29.00;99.90;;;;;;5051210;28;21042;-54
2021/07/29 08:58:23;;;;;;;2.57;2.37;;;29.60;99.90;;;;;;5049760;28;20448;-54
2021/07/29 09:01:00;;;;;;;3.00;2.50;;;29.80;99.90;;;;;;5051252;28;20497;-54
2021/07/29 09:03:28;;;;;;;2.40;2.30;;;29.80;99.90;;;;;;5051363;28;20570;-54
2021/07/29 09:06:06;;;;;;;3.30;2.80;;;29.30;99.90;;;;;;5051558;28;20577;-54
2021/07/29 09:08:43;;;;;;;3.40;3.10;;;29.30;99.90;;;;;;5049081;28;20539;-54
2021/07/29 09:11:32;;;;;;;2.83;2.63;;;29.40;99.90;;;;;;5051588;28;20535;-54
2021/07/29 09:14:11;;;;;;;2.53;2.40;;;29.40;99.90;;;;;;5051360;28;20911;-54
2021/07/29 09:16:56;;;;;;;3.43;3.23;;;29.80;99.90;;;;;;5037301;28;20827;-54
2021/07/29 09:19:34;;;;;;;3.77;2.83;;;30.20;99.90;;;;;;5051513;28;20485;-54
2021/07/29 09:22:14;;;;;;;3.23;2.77;;;29.30;99.90;;;;;;5051222;28;20542;-54
2021/07/29 09:24:59;;;;;;;4.33;3.50;;;29.50;99.90;;;;;;5051503;28;20471;-54
2021/07/29 09:27:26;;;;;;;3.70;3.40;;;28.70;99.90;;;;;;5051812;28;20447;-54
2021/07/29 09:29:53;;;;;;;3.47;3.17;;;29.10;99.90;;;;;;5050971;28;20920;-54
2021/07/29 09:32:22;;;;;;;3.37;3.07;;;29.60;99.90;;;;;;5051251;28;20559;-54
2021/07/29 09:34:50;;;;;;;2.90;2.70;;;30.10;99.90;;;;;;5050972;28;20550;-54
2021/07/29 09:37:20;;;;;;;3.30;2.80;;;30.40;99.90;;;;;;5051694;28;20448;-54
2021/07/29 09:39:57;;;;;;;3.10;2.90;;;30.40;99.90;;;;;;5051386;28;20443;-54
2021/07/29 09:42:24;;;;;;;5.23;3.57;;;30.40;99.90;;;;;;5051236;28;20451;-54
2021/07/29 09:44:53;;;;;;;3.57;3.27;;;29.40;99.90;;;;;;5050542;28;20468;-54
2021/07/29 09:47:21;;;;;;;3.40;3.10;;;27.90;99.90;;;;;;5051281;28;20448;-53
2021/07/29 09:49:49;;;;;;;3.30;3.10;;;28.00;99.90;;;;;;5051374;28;20444;-53
2021/07/29 09:52:18;;;;;;;3.37;3.17;;;28.70;99.90;;;;;;5050932;28;20904;-54
2021/07/29 09:54:47;;;;;;;7.40;3.70;;;28.20;99.90;;;;;;5051000;28;20849;-53
2021/07/29 09:57:14;;;;;;;3.97;3.60;;;27.50;99.90;;;;;;5050846;28;20448;-53
2021/07/29 09:59:41;;;;;;;3.77;3.47;;;27.20;99.90;;;;;;5050361;28;20452;-53
2021/07/29 10:02:09;;;;;;;8.13;3.90;;;27.40;99.90;;;;;;5050093;28;20456;-53
2021/07/29 10:04:42;;;;;;;4.23;3.83;;;27.30;99.90;;;;;;5050342;28;20468;-53
2021/07/29 10:07:13;;;;;;;6.20;4.40;;;27.00;99.90;;;;;;5053211;28;20470;-53
2021/07/29 10:09:46;;;;;;;4.20;3.80;;;27.30;99.90;;;;;;5054521;28;20444;-54
2021/07/29 10:12:20;;;;;;;4.77;4.20;;;27.70;99.90;;;;;;5054252;28;20522;-54
2021/07/29 10:14:49;;;;;;;4.20;3.23;;;28.60;99.90;;;;;;5051291;28;21015;-54
2021/07/29 10:17:17;;;;;;;3.07;2.87;;;29.20;99.90;;;;;;5050746;28;20506;-54
2021/07/29 10:20:16;;;;;;;3.83;3.53;;;28.50;99.90;;;;;;5054038;28;20492;-54
2021/07/29 10:22:44;;;;;;;4.43;3.60;;;27.20;99.90;;;;;;5054106;28;20439;-54
2021/07/29 10:25:14;;;;;;;7.27;3.80;;;25.80;99.90;;;;;;5054014;28;20873;-54
2021/07/29 10:27:42;;;;;;;4.60;3.63;;;25.80;99.90;;;;;;5054449;28;20443;-54
2021/07/29 10:30:39;;;;;;;4.47;4.07;;;26.60;99.90;;;;;;5054266;28;20439;-54
2021/07/29 10:33:20;;;;;;;4.30;3.50;;;26.60;99.90;;;;;;5010051;28;21026;-53
2021/07/29 10:35:47;;;;;;;4.80;3.50;;;27.20;99.90;;;;;;5045723;28;20463;-54
2021/07/29 10:38:14;;;;;;;3.83;3.43;;;28.20;99.90;;;;;;5054967;28;20455;-54
2021/07/29 10:40:44;;;;;;;4.20;3.80;;;28.30;99.90;;;;;;5055080;28;20474;-55
2021/07/29 10:43:40;;;;;;;4.73;3.70;;;28.60;99.90;;;;;;5051176;28;20463;-54
2021/07/29 10:46:07;;;;;;;3.83;3.53;;;28.30;99.90;;;;;;5051588;28;20422;-54
2021/07/29 10:49:12;;;;;;;4.70;4.30;;;27.80;99.90;;;;;;5054447;28;20452;-54
2021/07/29 10:52:08;;;;;;;3.47;3.27;;;27.90;99.90;;;;;;5053087;28;20483;-54
2021/07/29 10:54:37;;;;;;;5.70;4.20;;;28.70;99.90;;;;;;5053527;28;20475;-54
2021/07/29 10:57:06;;;;;;;4.73;4.33;;;28.10;99.90;;;;;;5054192;28;20797;-54
2021/07/29 10:59:33;;;;;;;4.83;4.37;;;27.80;99.90;;;;;;5053923;28;20448;-54
2021/07/29 11:02:02;;;;;;;5.10;4.60;;;27.50;99.90;;;;;;5052990;28;20501;-53
2021/07/29 11:04:30;;;;;;;4.20;3.80;;;27.70;99.90;;;;;;5053766;28;20475;-54
2021/07/29 11:07:00;;;;;;;9.90;4.30;;;27.80;99.90;;;;;;5053967;28;20454;-54
2021/07/29 11:09:31;;;;;;;5.00;4.60;;;28.10;99.90;;;;;;5053832;28;20448;-54
2021/07/29 11:11:59;;;;;;;4.70;3.97;;;27.80;99.90;;;;;;5052509;28;20582;-54
2021/07/29 11:14:29;;;;;;;5.00;4.60;;;27.60;99.90;;;;;;5053290;28;20472;-54
2021/07/29 11:16:58;;;;;;;4.83;4.37;;;27.20;99.90;;;;;;5053734;28;20444;-54
2021/07/29 11:19:25;;;;;;;7.20;4.73;;;27.40;99.90;;;;;;5052983;28;20509;-54
2021/07/29 11:22:05;;;;;;;6.27;4.33;;;27.50;99.90;;;;;;5052497;28;20444;-53
2021/07/29 11:24:33;;;;;;;5.70;4.20;;;26.70;99.90;;;;;;5052636;28;20471;-55
2021/07/29 11:27:01;;;;;;;4.87;4.37;;;26.80;99.90;;;;;;5052854;28;20881;-55
2021/07/29 11:29:29;;;;;;;4.40;3.90;;;26.60;99.90;;;;;;5053963;28;20447;-55
2021/07/29 11:31:57;;;;;;;4.20;3.90;;;25.90;99.90;;;;;;5053116;28;20538;-55
2021/07/29 11:34:30;;;;;;;5.00;4.60;;;25.60;99.90;;;;;;5053061;28;20472;-55
2021/07/29 11:36:58;;;;;;;5.50;4.77;;;25.20;99.90;;;;;;5051235;28;20474;-54
2021/07/29 11:39:26;;;;;;;6.50;4.80;;;25.30;99.90;;;;;;5052138;28;20459;-55
2021/07/29 11:41:56;;;;;;;6.50;4.93;;;25.50;99.90;;;;;;5052636;28;20448;-55
2021/07/29 11:44:23;;;;;;;5.37;4.90;;;25.80;99.90;;;;;;5052342;28;20566;-55
2021/07/29 11:46:56;;;;;;;6.10;4.77;;;25.60;99.90;;;;;;5053274;28;20875;-55
2021/07/29 11:49:24;;;;;;;6.93;4.93;;;25.80;99.90;;;;;;5053456;28;20945;-54
2021/07/29 11:52:11;;;;;;;5.20;4.70;;;26.10;99.90;;;;;;5052826;28;20479;-54
2021/07/29 11:54:38;;;;;;;4.50;4.07;;;25.90;99.90;;;;;;5053158;28;20459;-55
2021/07/29 11:57:06;;;;;;;5.47;4.90;;;25.90;99.90;;;;;;5053095;28;20440;-55
2021/07/29 11:59:36;;;;;;;5.37;4.60;;;25.80;99.90;;;;;;5053428;28;20497;-55
2021/07/29 12:02:07;;;;;;;5.40;4.90;;;25.50;99.90;;;;;;5053055;28;20440;-55
2021/07/29 12:04:35;;;;;;;5.83;5.23;;;25.30;99.90;;;;;;5052772;28;20475;-55
2021/07/29 12:07:03;;;;;;;6.30;4.80;;;25.30;99.90;;;;;;5053364;28;20447;-53
2021/07/29 12:09:32;;;;;;;5.90;4.70;;;25.10;99.90;;;;;;5053334;28;20505;-53
2021/07/29 12:12:00;;;;;;;5.30;4.80;;;25.10;99.90;;;;;;5052695;28;21069;-53
2021/07/29 12:14:27;;;;;;;5.10;4.63;;;25.00;99.90;;;;;;5052648;28;20989;-53
2021/07/29 12:16:55;;;;;;;6.30;4.50;;;24.80;99.90;;;;;;5052817;28;20505;-53
2021/07/29 12:19:24;;;;;;;6.27;4.30;;;25.00;99.90;;;;;;5052871;28;20860;-53
2021/07/29 12:21:52;;;;;;;4.97;4.53;;;24.90;99.90;;;;;;5052591;28;20497;-53
2021/07/29 12:24:20;;;;;;;7.30;5.20;;;24.40;99.90;;;;;;5052629;28;20467;-53
2021/07/29 12:27:12;;;;;;;5.50;4.93;;;24.40;99.90;;;;;;5052877;28;20451;-53
2021/07/29 12:29:40;;;;;;;5.40;4.77;;;24.20;99.90;;;;;;5052357;28;20956;-53
2021/07/29 12:32:21;;;;;;;5.27;4.77;;;24.00;99.90;;;;;;5052405;28;20926;-53
2021/07/29 12:34:50;;;;;;;5.27;4.77;;;24.20;99.90;;;;;;5052397;28;20889;-53
2021/07/29 12:37:34;;;;;;;5.80;5.03;;;24.40;99.90;;;;;;5052521;28;20866;-53
2021/07/29 12:40:02;;;;;;;7.43;5.20;;;24.60;99.90;;;;;;5052440;28;20994;-53
2021/07/29 12:42:32;;;;;;;5.37;4.87;;;24.30;99.90;;;;;;5052209;28;20501;-53
2021/07/29 12:45:03;;;;;;;6.40;5.17;;;24.40;99.90;;;;;;5051971;28;20467;-53
2021/07/29 12:47:30;;;;;;;5.70;5.10;;;24.10;99.90;;;;;;5052207;28;20452;-53
2021/07/29 12:49:59;;;;;;;7.43;5.60;;;24.10;99.90;;;;;;5052320;28;20497;-53
2021/07/29 12:52:26;;;;;;;6.37;4.70;;;24.20;99.90;;;;;;5051938;28;20479;-53
2021/07/29 12:55:01;;;;;;;5.20;4.70;;;23.90;99.90;;;;;;5052132;28;20471;-53
2021/07/29 12:57:28;;;;;;;6.23;4.87;;;24.00;99.90;;;;;;5052183;28;20459;-54